Time;durP1;ratioP1;P1;durP2;ratioP2;P2;SDS_P1;SDS_P2;PMS_P1;PMS_P2;Temp;Humidity;BMP_temperature;BMP_pressure;BME280_temperature;BME280_humidity;BME280_pressure;Samples;Min_cycle;Max_cycle;Signal;HPM_P1;HPM_P2
2021/07/24 00:01:10;;;;;;;8.83;8.13;;;;;;;26.31;41.12;97830.56;5034893;28;20221;-57
2021/07/24 00:03:38;;;;;;;8.63;7.93;;;;;;;26.26;41.44;97833.09;5035435;28;20183;-56
2021/07/24 00:06:05;;;;;;;8.80;8.10;;;;;;;26.24;41.50;97839.72;5034780;28;20624;-57
2021/07/24 00:08:32;;;;;;;8.90;8.10;;;;;;;26.20;41.29;97834.00;5035316;28;20652;-57
2021/07/24 00:11:05;;;;;;;8.67;7.97;;;;;;;26.24;41.38;97835.19;5034715;28;20300;-57
2021/07/24 00:13:34;;;;;;;9.00;8.20;;;;;;;26.22;41.70;97831.91;5034856;28;20181;-57
2021/07/24 00:16:01;;;;;;;8.20;7.50;;;;;;;26.17;41.67;97839.78;5034627;28;20200;-57
2021/07/24 00:18:28;;;;;;;8.80;8.10;;;;;;;26.16;41.46;97832.81;5034505;28;20659;-57
2021/07/24 00:20:54;;;;;;;9.07;8.33;;;;;;;26.20;41.71;97821.44;5034418;28;20211;-57
2021/07/24 00:23:21;;;;;;;8.53;7.83;;;;;;;26.24;41.32;97818.31;5034508;28;20191;-57
2021/07/24 00:25:47;;;;;;;9.10;8.30;;;;;;;26.25;41.46;97802.03;5034447;28;20194;-57
2021/07/24 00:28:14;;;;;;;8.87;8.07;;;;;;;26.23;41.54;97792.63;5034426;28;20195;-57
2021/07/24 00:30:42;;;;;;;8.97;8.27;;;;;;;26.15;41.48;97785.72;5034240;28;20294;-57
2021/07/24 00:33:15;;;;;;;8.57;7.83;;;;;;;26.16;41.62;97777.44;5033074;28;20193;-57
2021/07/24 00:35:42;;;;;;;8.47;7.77;;;;;;;26.15;41.49;97767.00;5032944;28;20204;-57
2021/07/24 00:38:10;;;;;;;8.73;8.03;;;;;;;26.13;41.82;97761.03;5032934;28;20256;-57
2021/07/24 00:40:42;;;;;;;8.87;8.13;;;;;;;26.14;41.49;97762.69;5034400;28;20229;-57
2021/07/24 00:43:10;;;;;;;8.77;8.07;;;;;;;26.12;41.52;97762.09;5034203;28;20175;-57
2021/07/24 00:45:47;;;;;;;9.53;8.73;;;;;;;26.12;41.83;97767.44;5034087;28;20191;-56
2021/07/24 00:48:19;;;;;;;9.17;8.40;;;;;;;26.14;41.54;97774.19;5033366;28;20190;-57
2021/07/24 00:51:01;;;;;;;8.27;7.67;;;;;;;26.12;41.87;97770.09;5032640;28;20219;-57
2021/07/24 00:53:35;;;;;;;8.80;8.00;;;;;;;26.15;41.76;97759.78;5033179;28;20614;-57
2021/07/24 00:56:04;;;;;;;9.17;8.20;;;;;;;26.16;41.39;97766.75;5034912;28;20546;-57
2021/07/24 00:58:32;;;;;;;8.87;8.07;;;;;;;26.19;41.64;97760.97;5033737;28;20206;-57
2021/07/24 01:01:00;;;;;;;8.70;8.00;;;;;;;26.21;41.54;97766.94;5033582;28;20221;-57
2021/07/24 01:03:28;;;;;;;8.40;7.70;;;;;;;26.22;41.57;97767.72;5033052;28;20199;-57
2021/07/24 01:05:57;;;;;;;9.37;8.57;;;;;;;26.18;41.59;97756.66;5032494;28;20202;-57
2021/07/24 01:08:25;;;;;;;9.03;8.23;;;;;;;26.22;41.21;97765.06;5032386;28;20241;-57
2021/07/24 01:10:53;;;;;;;9.03;8.23;;;;;;;26.19;41.54;97777.00;5032630;28;20213;-57
2021/07/24 01:13:20;;;;;;;9.10;8.30;;;;;;;26.21;41.23;97756.25;5033699;28;20199;-57
2021/07/24 01:15:49;;;;;;;9.70;8.63;;;;;;;26.23;41.49;97744.50;5032250;28;20288;-57
2021/07/24 01:18:20;;;;;;;9.37;8.53;;;;;;;26.18;41.24;97739.81;5032451;28;20245;-57
2021/07/24 01:20:51;;;;;;;9.30;8.40;;;;;;;26.18;41.31;97731.81;5032027;28;20228;-57
2021/07/24 01:23:18;;;;;;;9.60;8.70;;;;;;;26.17;41.62;97732.81;5016692;28;20182;-57
2021/07/24 01:25:50;;;;;;;9.00;8.17;;;;;;;26.13;41.41;97732.44;5033620;28;20232;-57
2021/07/24 01:28:30;;;;;;;8.77;8.07;;;;;;;26.12;41.46;97736.16;5033302;28;20194;-57
2021/07/24 01:30:58;;;;;;;9.40;8.60;;;;;;;26.11;41.72;97733.72;5031960;28;20218;-57
2021/07/24 01:33:26;;;;;;;9.10;8.30;;;;;;;26.11;41.53;97731.03;5032009;28;20198;-57
2021/07/24 01:35:53;;;;;;;9.30;8.50;;;;;;;26.13;41.61;97718.25;5033166;28;20209;-57
2021/07/24 01:38:21;;;;;;;9.13;8.33;;;;;;;26.12;41.41;97714.78;5031845;28;20222;-57
2021/07/24 01:40:57;;;;;;;8.70;8.00;;;;;;;26.12;41.78;97716.63;5031913;28;20693;-57
2021/07/24 01:43:24;;;;;;;8.63;7.93;;;;;;;26.18;41.68;97723.78;5032192;28;20221;-57
2021/07/24 01:45:50;;;;;;;9.17;8.30;;;;;;;26.14;41.72;97725.25;5033063;28;20657;-57
2021/07/24 01:48:33;;;;;;;9.93;8.97;;;;;;;26.13;41.70;97723.59;5031784;28;20197;-57
2021/07/24 01:53:50;;;;;;;8.87;8.17;;;;;;;26.15;41.64;97726.88;5033253;28;20194;-57
2021/07/24 01:56:20;;;;;;;9.20;8.40;;;;;;;26.15;41.31;97724.22;5032030;28;20568;-57
2021/07/24 01:58:47;;;;;;;9.33;8.50;;;;;;;26.18;41.31;97723.78;5031638;28;20633;-57
2021/07/24 02:01:24;;;;;;;8.80;8.10;;;;;;;26.15;41.42;97726.88;5031778;28;20200;-57
2021/07/24 02:04:19;;;;;;;9.20;8.40;;;;;;;26.18;41.36;97723.78;5031608;28;20194;-57
2021/07/24 02:06:56;;;;;;;9.00;8.20;;;;;;;26.20;41.41;97721.69;5031558;28;20244;-57
2021/07/24 02:09:27;;;;;;;9.30;8.50;;;;;;;26.20;41.64;97724.38;5031578;28;20684;-57
2021/07/24 02:11:59;;;;;;;8.90;8.20;;;;;;;26.20;41.55;97727.84;5035902;28;20722;-57
2021/07/24 02:14:34;;;;;;;9.60;8.80;;;;;;;26.21;41.33;97734.00;5035791;28;20213;-57
2021/07/24 02:17:08;;;;;;;9.00;8.20;;;;;;;26.20;41.49;97733.19;5035655;28;20195;-57
2021/07/24 02:19:38;;;;;;;8.90;8.10;;;;;;;26.23;41.19;97736.47;5035453;28;20229;-57
2021/07/24 02:22:05;;;;;;;9.47;8.67;;;;;;;26.25;41.15;97724.47;5036780;28;20663;-57
2021/07/24 02:24:36;;;;;;;9.17;8.30;;;;;;;26.24;41.15;97714.03;5036170;28;20194;-57
2021/07/24 02:27:08;;;;;;;8.87;8.07;;;;;;;26.21;41.35;97702.75;5035728;28;20225;-57
2021/07/24 02:29:42;;;;;;;9.67;8.87;;;;;;;26.18;41.46;97702.38;5035232;28;20210;-57
2021/07/24 02:32:11;;;;;;;9.30;8.50;;;;;;;26.19;41.56;97701.34;5035335;28;20194;-57
2021/07/24 02:34:37;;;;;;;9.07;8.27;;;;;;;26.20;41.15;97694.94;5037099;28;20182;-57
2021/07/24 02:37:04;;;;;;;9.63;8.83;;;;;;;26.17;41.47;97682.00;5035170;28;20195;-57
2021/07/24 02:39:31;;;;;;;9.47;8.67;;;;;;;26.19;41.46;97677.28;5035033;28;20735;-57
2021/07/24 02:41:58;;;;;;;9.37;8.57;;;;;;;26.20;41.13;97660.19;5035967;28;20530;-57
2021/07/24 02:44:26;;;;;;;9.73;8.83;;;;;;;26.13;41.25;97662.09;5035026;28;20214;-57
2021/07/24 02:46:53;;;;;;;9.33;8.53;;;;;;;26.16;41.41;97667.03;5035080;28;20194;-57
2021/07/24 02:49:23;;;;;;;9.13;8.37;;;;;;;26.17;41.25;97674.81;5034948;28;20221;-57
2021/07/24 02:51:51;;;;;;;9.03;8.23;;;;;;;26.20;41.37;97689.59;5035166;28;20720;-57
2021/07/24 02:54:21;;;;;;;9.60;8.77;;;;;;;26.21;41.20;97704.59;5034786;28;20644;-57
2021/07/24 02:56:53;;;;;;;9.17;8.37;;;;;;;26.23;41.41;97726.56;5036705;28;20254;-57
2021/07/24 02:59:19;;;;;;;10.73;9.73;;;;;;;26.25;41.31;97729.03;5036118;28;20218;-57
2021/07/24 03:01:46;;;;;;;10.73;9.80;;;;;;;26.24;40.99;97728.19;5036069;28;20205;-57
2021/07/24 03:04:13;;;;;;;10.00;9.10;;;;;;;26.23;41.05;97731.91;5035971;28;20683;-57
2021/07/24 03:06:39;;;;;;;9.30;8.40;;;;;;;26.20;41.21;97730.50;5035936;28;20191;-57
2021/07/24 03:09:07;;;;;;;9.13;8.33;;;;;;;26.25;41.05;97710.31;5035841;28;20197;-57
2021/07/24 03:11:34;;;;;;;9.17;8.40;;;;;;;26.23;41.12;97731.13;5035849;28;20194;-57
2021/07/24 03:14:01;;;;;;;9.53;8.73;;;;;;;26.19;41.35;97731.56;5036132;28;20529;-57
2021/07/24 03:16:28;;;;;;;9.97;9.07;;;;;;;26.18;41.39;97734.47;5035741;28;20187;-56
2021/07/24 03:18:56;;;;;;;9.50;8.70;;;;;;;26.10;41.31;97764.16;5034523;28;20547;-57
2021/07/24 03:21:23;;;;;;;10.00;9.10;;;;;;;26.10;41.68;97790.91;5035355;28;20209;-56
2021/07/24 03:23:49;;;;;;;9.37;8.57;;;;;;;26.08;41.23;97809.88;5035867;28;20198;-57
2021/07/24 03:26:17;;;;;;;8.70;8.00;;;;;;;26.04;41.58;97814.00;5035863;28;20182;-57
2021/07/24 03:28:44;;;;;;;8.97;8.17;;;;;;;26.08;41.72;97793.81;5035499;28;20198;-57
2021/07/24 03:31:11;;;;;;;9.23;8.43;;;;;;;26.09;41.65;97819.53;5034304;28;20218;-57
2021/07/24 03:33:38;;;;;;;9.83;8.90;;;;;;;26.06;41.73;97804.72;5035743;28;20187;-57
2021/07/24 03:36:05;;;;;;;9.70;8.90;;;;;;;26.06;41.58;97812.75;5035265;28;20186;-57
2021/07/24 03:38:31;;;;;;;9.57;8.67;;;;;;;26.07;41.42;97835.78;5033994;28;20260;-57
2021/07/24 03:40:59;;;;;;;9.23;8.40;;;;;;;26.12;41.60;97821.72;5035309;28;20304;-57
2021/07/24 03:43:25;;;;;;;9.53;8.67;;;;;;;26.13;41.54;97798.47;5033940;28;20597;-57
2021/07/24 03:45:52;;;;;;;9.83;9.03;;;;;;;26.10;41.40;97793.56;5035227;28;20185;-57
2021/07/24 03:48:18;;;;;;;9.43;8.53;;;;;;;26.13;41.63;97796.63;5035250;28;20209;-56
2021/07/24 03:50:46;;;;;;;9.33;8.57;;;;;;;26.11;41.32;97780.00;5035151;28;20206;-57
2021/07/24 03:53:13;;;;;;;9.50;8.70;;;;;;;26.16;41.50;97776.66;5035511;28;20664;-57
2021/07/24 03:55:39;;;;;;;9.57;8.77;;;;;;;26.15;41.66;97777.69;5035411;28;20194;-57
2021/07/24 03:58:06;;;;;;;9.83;8.97;;;;;;;26.14;41.31;97776.88;5035514;28;20182;-58
2021/07/24 04:00:45;;;;;;;10.27;9.00;;;;;;;26.08;41.43;97778.59;5033655;28;20242;-56
2021/07/24 04:03:12;;;;;;;10.07;9.07;;;;;;;26.11;41.65;97763.13;5035303;28;20180;-57
2021/07/24 04:05:41;;;;;;;10.03;9.13;;;;;;;26.07;41.50;97757.44;5034901;28;20269;-57
2021/07/24 04:08:07;;;;;;;9.07;8.27;;;;;;;26.07;41.49;97742.19;5035131;28;20190;-57
2021/07/24 04:10:35;;;;;;;10.07;9.17;;;;;;;26.00;41.55;97736.16;5034780;28;20203;-56
2021/07/24 04:13:03;;;;;;;9.87;8.93;;;;;;;26.02;41.74;97747.41;5035054;28;20190;-57
2021/07/24 04:15:29;;;;;;;9.67;8.87;;;;;;;26.03;41.63;97748.22;5034686;28;20190;-57
2021/07/24 04:17:58;;;;;;;9.63;8.73;;;;;;;26.01;41.72;97750.31;5034748;28;20192;-57
2021/07/24 04:20:25;;;;;;;9.80;8.93;;;;;;;26.01;41.48;97756.50;5034900;28;20236;-57
2021/07/24 04:22:52;;;;;;;9.87;9.07;;;;;;;26.01;41.82;97761.00;5034617;28;20683;-56
2021/07/24 04:25:18;;;;;;;10.13;9.17;;;;;;;26.03;41.68;97764.25;5034618;28;20193;-56
2021/07/24 04:27:46;;;;;;;9.40;8.60;;;;;;;26.04;41.78;97764.03;5034507;28;20221;-57
2021/07/24 04:30:13;;;;;;;8.97;8.17;;;;;;;26.04;41.78;97749.84;5033032;28;20207;-57
2021/07/24 04:32:40;;;;;;;9.37;8.60;;;;;;;26.03;41.58;97749.06;5033206;28;20206;-56
2021/07/24 04:35:07;;;;;;;9.07;8.30;;;;;;;26.03;41.92;97756.25;5033226;28;20193;-55
2021/07/24 04:37:35;;;;;;;10.00;9.07;;;;;;;26.01;41.52;97745.78;5034306;28;20237;-56
2021/07/24 04:40:03;;;;;;;9.57;8.77;;;;;;;26.03;41.54;97745.53;5034081;28;20570;-57
2021/07/24 04:42:31;;;;;;;8.97;8.17;;;;;;;26.03;41.56;97740.19;5034672;28;20186;-55
2021/07/24 04:44:58;;;;;;;9.70;8.80;;;;;;;26.04;41.63;97740.00;5034037;28;20267;-55
2021/07/24 04:47:25;;;;;;;9.37;8.47;;;;;;;25.93;41.97;97738.91;5034028;28;20680;-55
2021/07/24 04:49:53;;;;;;;10.03;9.13;;;;;;;25.94;42.03;97740.53;5033929;28;20205;-55
2021/07/24 04:52:21;;;;;;;8.93;8.13;;;;;;;26.00;41.65;97744.16;5033953;28;20186;-55
2021/07/24 04:54:48;;;;;;;9.63;8.73;;;;;;;26.03;41.95;97735.69;5033849;28;20269;-55
2021/07/24 04:57:18;;;;;;;9.97;9.07;;;;;;;26.01;41.92;97731.59;5032552;28;20197;-55
2021/07/24 04:59:48;;;;;;;9.40;8.60;;;;;;;25.92;41.85;97736.44;5032461;28;20613;-55
2021/07/24 05:02:16;;;;;;;8.60;7.90;;;;;;;25.91;42.18;97735.66;5033708;28;20190;-55
2021/07/24 05:04:44;;;;;;;9.20;8.40;;;;;;;25.94;42.05;97739.72;5033683;28;20222;-54
2021/07/24 05:07:16;;;;;;;9.80;8.90;;;;;;;25.94;42.06;97737.88;5033595;28;20186;-55
2021/07/24 05:09:43;;;;;;;9.40;8.60;;;;;;;25.95;42.08;97733.31;5034125;28;20202;-55
2021/07/24 05:12:10;;;;;;;10.00;9.10;;;;;;;25.98;41.85;97737.41;5032281;28;20204;-55
2021/07/24 05:14:37;;;;;;;9.57;8.77;;;;;;;25.97;41.87;97715.19;5033526;28;20235;-55
2021/07/24 05:17:11;;;;;;;9.63;8.83;;;;;;;25.95;42.22;97725.31;5033423;28;20190;-55
2021/07/24 05:19:40;;;;;;;10.13;9.23;;;;;;;25.96;42.01;97718.13;5033500;28;20218;-55
2021/07/24 05:22:08;;;;;;;9.37;8.47;;;;;;;26.03;41.90;97722.31;5033368;28;20189;-55
2021/07/24 05:24:35;;;;;;;9.77;8.97;;;;;;;25.97;41.94;97711.72;5033356;28;20570;-55
2021/07/24 05:27:02;;;;;;;9.33;8.43;;;;;;;25.96;42.02;97704.75;5033829;28;20541;-55
2021/07/24 05:29:29;;;;;;;9.73;8.83;;;;;;;26.01;41.96;97713.72;5033198;28;20207;-55
2021/07/24 05:31:56;;;;;;;9.73;8.93;;;;;;;26.02;41.96;97712.66;5033523;28;20195;-56
2021/07/24 05:34:23;;;;;;;9.83;8.93;;;;;;;25.99;41.71;97715.81;5032101;28;20204;-57
2021/07/24 05:36:49;;;;;;;9.37;8.57;;;;;;;26.04;41.73;97710.56;5033216;28;20195;-56
2021/07/24 05:39:16;;;;;;;11.23;10.20;;;;;;;26.02;41.75;97704.66;5032052;28;20186;-59
2021/07/24 05:41:42;;;;;;;12.97;11.77;;;;;;;26.02;42.25;97704.66;5033220;28;20186;-59
2021/07/24 05:44:12;;;;;;;15.83;14.33;;;;;;;25.97;42.75;97712.53;5015633;28;20255;-59
2021/07/24 05:46:38;;;;;;;16.07;14.50;;;;;;;25.89;43.41;97715.53;5031466;28;20202;-59
2021/07/24 05:49:05;;;;;;;16.23;14.63;;;;;;;25.83;43.75;97724.47;5033068;28;20193;-58
2021/07/24 05:51:32;;;;;;;16.47;14.77;;;;;;;25.77;44.13;97718.97;5015334;28;20203;-59
2021/07/24 05:53:58;;;;;;;16.10;14.47;;;;;;;25.76;44.32;97728.03;5034109;28;20202;-59
2021/07/24 05:56:26;;;;;;;16.70;15.03;;;;;;;25.76;44.57;97733.38;5034242;28;20204;-59
2021/07/24 05:58:52;;;;;;;15.93;14.43;;;;;;;25.78;44.55;97735.84;5033342;28;20265;-57
2021/07/24 06:01:19;;;;;;;15.53;14.03;;;;;;;25.81;44.70;97735.38;5032826;28;20221;-58
2021/07/24 06:03:46;;;;;;;16.47;14.53;;;;;;;25.77;44.63;97740.34;5032968;28;20190;-59
2021/07/24 06:06:12;;;;;;;16.03;14.43;;;;;;;25.78;44.50;97741.97;5033147;28;20539;-58
2021/07/24 06:08:39;;;;;;;16.13;14.33;;;;;;;25.85;44.70;97746.44;5032841;28;20182;-58
2021/07/24 06:11:05;;;;;;;16.93;15.30;;;;;;;25.83;44.97;97756.53;5032994;28;20222;-58
2021/07/24 06:13:32;;;;;;;16.97;15.27;;;;;;;25.79;44.86;97764.97;5033045;28;20267;-59
2021/07/24 06:15:59;;;;;;;17.77;14.70;;;;;;;25.75;45.04;97769.16;5032771;28;20224;-61
2021/07/24 06:18:26;;;;;;;15.67;14.20;;;;;;;25.72;45.45;97768.78;5033100;28;20201;-60
2021/07/24 06:20:53;;;;;;;16.50;14.57;;;;;;;25.72;45.42;97780.31;5031314;28;20248;-60
2021/07/24 06:23:20;;;;;;;15.97;14.47;;;;;;;25.76;45.32;97783.34;5043365;28;20197;-58
2021/07/24 06:25:47;;;;;;;16.37;14.77;;;;;;;25.70;45.82;97793.06;5048116;28;20193;-58
2021/07/24 06:28:14;;;;;;;15.20;13.67;;;;;;;25.71;46.02;97794.69;5048110;28;20189;-57
2021/07/24 06:30:41;;;;;;;16.30;14.70;;;;;;;25.65;45.88;97801.75;5052330;28;20207;-58
2021/07/24 06:33:08;;;;;;;16.37;14.77;;;;;;;25.64;45.98;97805.47;5051355;28;20186;-59
2021/07/24 06:35:35;;;;;;;17.17;15.47;;;;;;;25.62;46.02;97796.88;5052802;28;20185;-58
2021/07/24 06:38:01;;;;;;;16.63;14.97;;;;;;;25.59;45.86;97797.31;5052544;28;20201;-58
2021/07/24 06:40:28;;;;;;;15.27;13.87;;;;;;;25.56;45.93;97803.09;5052387;28;20224;-58
2021/07/24 06:42:55;;;;;;;16.07;14.37;;;;;;;25.59;45.91;97801.81;5050789;28;20208;-58
2021/07/24 06:45:22;;;;;;;16.73;14.30;;;;;;;25.61;46.09;97795.22;5050073;28;20190;-59
2021/07/24 06:47:48;;;;;;;16.03;14.53;;;;;;;25.64;45.88;97781.41;5051841;28;20185;-58
2021/07/24 06:50:15;;;;;;;14.70;13.30;;;;;;;25.65;46.02;97780.38;5050013;28;20212;-58
2021/07/24 06:52:43;;;;;;;14.57;13.07;;;;;;;25.67;46.08;97776.66;5052173;28;20687;-58
2021/07/24 06:55:10;;;;;;;15.63;14.13;;;;;;;25.67;46.18;97765.97;5052062;28;20186;-58
2021/07/24 06:57:36;;;;;;;15.43;13.83;;;;;;;25.64;46.08;97746.69;5053551;28;20200;-58
2021/07/24 07:00:03;;;;;;;15.87;14.13;;;;;;;25.68;46.49;97744.38;5055642;28;20267;-58
2021/07/24 07:02:30;;;;;;;15.57;13.67;;;;;;;25.71;46.54;97732.41;5055953;28;20619;-59
2021/07/24 07:04:56;;;;;;;15.63;14.00;;;;;;;25.74;46.31;97740.81;5054582;28;20196;-58
2021/07/24 07:07:23;;;;;;;15.57;13.93;;;;;;;25.78;46.25;97749.19;5054568;28;20209;-58
2021/07/24 07:09:50;;;;;;;14.50;13.10;;;;;;;25.79;46.50;97759.63;5056263;28;20221;-58
2021/07/24 07:12:16;;;;;;;16.77;13.73;;;;;;;25.82;46.20;97757.59;5055716;28;20596;-58
2021/07/24 07:14:43;;;;;;;15.60;14.00;;;;;;;25.82;46.61;97762.94;5055985;28;20185;-58
2021/07/24 07:17:09;;;;;;;15.97;14.37;;;;;;;25.83;46.38;97761.88;5055654;28;20193;-58
2021/07/24 07:23:55;;;;;;;13.77;12.47;;;;;;;25.87;46.26;97749.69;5034513;28;20185;-86
2021/07/24 07:26:26;;;;;;;14.90;13.33;;;;;;;25.87;46.41;97745.16;5036950;28;20627;-86
2021/07/24 07:28:54;;;;;;;15.13;13.60;;;;;;;25.88;46.22;97757.47;5037193;28;20170;-86
2021/07/24 07:31:21;;;;;;;14.27;12.80;;;;;;;25.89;46.28;97737.75;5036841;28;20190;-87
2021/07/24 07:33:48;;;;;;;13.97;12.53;;;;;;;25.91;46.25;97713.44;5020325;28;20202;-87
2021/07/24 07:36:15;;;;;;;14.80;13.07;;;;;;;25.88;46.18;97716.56;5036543;28;20198;-87
2021/07/24 07:38:41;;;;;;;14.50;13.00;;;;;;;25.91;46.06;97732.97;5019900;28;20206;-87
2021/07/24 07:41:08;;;;;;;14.73;13.30;;;;;;;25.90;46.35;97754.56;5036738;28;20264;-87
2021/07/24 07:43:34;;;;;;;14.73;13.30;;;;;;;25.87;46.80;97757.72;5034795;28;20589;-88
2021/07/24 07:46:02;;;;;;;15.07;13.67;;;;;;;25.84;46.95;97750.94;5036614;28;20209;-87
2021/07/24 07:48:32;;;;;;;14.83;13.00;;;;;;;25.83;47.39;97753.88;5036434;28;20290;-87
2021/07/24 07:50:58;;;;;;;14.63;13.03;;;;;;;25.83;47.25;97756.53;5035846;28;20697;-87
2021/07/24 07:53:25;;;;;;;14.17;12.67;;;;;;;25.84;47.69;97766.19;5019547;28;20194;-87
2021/07/24 07:55:51;;;;;;;15.37;13.77;;;;;;;25.87;47.52;97761.19;5034480;28;20198;-86
2021/07/24 07:58:18;;;;;;;14.83;13.33;;;;;;;25.90;47.72;97773.28;5035680;28;20193;-87
2021/07/24 08:00:44;;;;;;;14.97;13.40;;;;;;;25.95;47.85;97762.72;5037264;28;20206;-87
2021/07/24 08:03:11;;;;;;;15.67;13.30;;;;;;;25.97;47.70;97765.19;5019777;28;20198;-87
2021/07/24 08:05:38;;;;;;;14.90;13.03;;;;;;;25.97;47.98;97763.31;5041880;28;20208;-87
2021/07/24 08:08:05;;;;;;;15.00;13.23;;;;;;;26.01;48.12;97769.84;5041424;28;20210;-88
2021/07/24 08:10:31;;;;;;;14.07;12.70;;;;;;;26.03;47.86;97759.75;5037867;28;20182;-88
2021/07/24 08:12:58;;;;;;;13.87;12.57;;;;;;;26.04;48.05;97750.69;5035594;28;20301;-88
2021/07/24 08:15:24;;;;;;;15.97;14.37;;;;;;;26.05;48.20;97752.31;5019168;28;20191;-85
2021/07/24 08:17:53;;;;;;;14.17;12.77;;;;;;;26.08;48.27;97757.19;5036012;28;20182;-87
2021/07/24 08:20:20;;;;;;;17.90;14.43;;;;;;;26.07;48.31;97755.56;5035458;28;20662;-88
2021/07/24 08:22:46;;;;;;;15.40;13.93;;;;;;;26.12;48.13;97752.22;5018744;28;20275;-87
2021/07/24 08:25:13;;;;;;;14.90;13.50;;;;;;;26.14;48.16;97755.47;5018828;28;20197;-87
2021/07/24 08:27:39;;;;;;;16.07;14.37;;;;;;;26.17;47.98;97748.88;5035614;28;20260;-87
2021/07/24 08:30:07;;;;;;;14.53;13.13;;;;;;;26.19;48.07;97741.44;5035272;28;20198;-87
2021/07/24 08:32:33;;;;;;;14.80;13.40;;;;;;;26.23;47.89;97736.47;5035169;28;20206;-88
2021/07/24 08:35:00;;;;;;;16.23;14.67;;;;;;;26.25;47.73;97735.19;5035249;28;20198;-88
2021/07/24 08:37:26;;;;;;;15.47;13.87;;;;;;;26.31;47.55;97731.59;5018668;28;20428;-88
2021/07/24 08:39:53;;;;;;;16.70;15.00;;;;;;;26.31;47.87;97723.56;5018556;28;20202;-87
2021/07/24 08:42:31;;;;;;;15.20;13.53;;;;;;;26.33;47.99;97729.50;5018601;28;20198;-87
2021/07/24 08:45:01;;;;;;;16.17;13.73;;;;;;;26.32;48.26;97719.84;5018960;28;20289;-88
2021/07/24 08:47:29;;;;;;;15.80;14.27;;;;;;;26.30;47.97;97716.59;5035203;28;20186;-88
2021/07/24 08:49:59;;;;;;;17.93;14.13;;;;;;;26.33;48.02;97726.84;5036212;28;20244;-88
2021/07/24 08:52:30;;;;;;;14.70;13.27;;;;;;;26.39;48.04;97718.94;5035278;28;20224;-87
2021/07/24 08:54:58;;;;;;;15.63;14.13;;;;;;;26.38;48.11;97720.81;5035350;28;20182;-88
2021/07/24 08:57:32;;;;;;;15.43;13.83;;;;;;;26.40;48.28;97720.56;5035062;28;20206;-87
2021/07/24 09:00:12;;;;;;;15.70;14.20;;;;;;;26.37;49.01;97724.50;5018737;28;20210;-88
2021/07/24 09:02:40;;;;;;;15.33;13.73;;;;;;;26.45;48.75;97734.03;5035072;28;20191;-88
2021/07/24 09:05:10;;;;;;;18.43;14.43;;;;;;;26.49;48.35;97741.38;5035951;28;20190;-87
2021/07/24 09:07:39;;;;;;;15.00;13.50;;;;;;;26.50;48.43;97747.56;5018622;28;20198;-87
2021/07/24 09:10:08;;;;;;;15.00;13.17;;;;;;;26.50;48.22;97756.38;5035191;28;20229;-86
2021/07/24 09:12:36;;;;;;;15.13;13.63;;;;;;;26.55;48.20;97766.41;5035348;28;20632;-87
2021/07/24 09:15:04;;;;;;;16.47;13.63;;;;;;;26.55;48.13;97755.69;5035262;28;20202;-87
2021/07/24 09:17:33;;;;;;;14.63;13.23;;;;;;;26.58;48.18;97763.25;5035159;28;20190;-86
2021/07/24 09:20:01;;;;;;;16.97;13.53;;;;;;;26.59;48.06;97766.75;5034184;28;20304;-87
2021/07/24 09:22:37;;;;;;;13.47;12.27;;;;;;;26.60;48.43;97757.69;5035412;28;20205;-87
2021/07/24 09:25:12;;;;;;;14.17;12.83;;;;;;;26.67;48.00;97769.09;5019476;28;20200;-87
2021/07/24 09:27:50;;;;;;;14.07;12.67;;;;;;;26.63;48.08;97766.06;5034917;28;20201;-87
2021/07/24 09:30:29;;;;;;;12.97;11.77;;;;;;;26.63;48.33;97763.41;5018429;28;20201;-87
2021/07/24 09:33:09;;;;;;;14.13;12.83;;;;;;;26.63;48.59;97763.41;5018366;28;20198;-87
2021/07/24 09:35:40;;;;;;;16.13;12.80;;;;;;;26.64;48.39;97765.03;5018286;28;20187;-87
2021/07/24 09:38:12;;;;;;;13.63;12.43;;;;;;;26.67;48.65;97779.00;5034737;28;20191;-87
2021/07/24 09:40:41;;;;;;;14.13;12.73;;;;;;;26.72;48.78;97776.44;5018248;28;20214;-87
2021/07/24 09:43:36;;;;;;;12.93;11.53;;;;;;;26.73;48.63;97759.31;5034829;28;20207;-87
2021/07/24 09:46:11;;;;;;;14.60;13.30;;;;;;;26.75;48.55;97743.84;5034681;28;20186;-87
2021/07/24 09:48:41;;;;;;;14.30;12.40;;;;;;;26.79;48.50;97739.66;5017974;28;20585;-87
2021/07/24 09:51:08;;;;;;;13.03;11.33;;;;;;;26.87;48.41;97742.00;5035585;28;20186;-87
2021/07/24 09:53:42;;;;;;;13.57;12.23;;;;;;;26.98;47.69;97723.50;5034430;28;20201;-86
2021/07/24 09:56:17;;;;;;;12.83;11.63;;;;;;;27.02;48.12;97724.66;5035347;28;20195;-87
2021/07/24 09:58:47;;;;;;;14.20;12.80;;;;;;;27.09;47.58;97728.00;5034853;28;20227;-87
2021/07/24 10:01:18;;;;;;;13.00;11.70;;;;;;;27.07;47.54;97730.13;5033751;28;20272;-87
2021/07/24 10:03:50;;;;;;;13.23;11.83;;;;;;;27.08;47.41;97718.34;5017545;28;20312;-87
2021/07/24 10:06:17;;;;;;;12.70;11.50;;;;;;;27.07;47.31;97727.44;5034279;28;20174;-87
2021/07/24 10:08:47;;;;;;;13.17;11.80;;;;;;;27.03;47.22;97719.09;5033858;28;20185;-87
2021/07/24 10:11:14;;;;;;;12.80;11.60;;;;;;;27.04;47.34;97730.59;5034019;28;20194;-86
2021/07/24 10:13:43;;;;;;;13.90;12.50;;;;;;;27.08;46.54;97720.25;5034239;28;20197;-86
2021/07/24 10:16:09;;;;;;;12.67;11.30;;;;;;;27.09;46.92;97719.19;5035100;28;20595;-86
2021/07/24 10:18:39;;;;;;;12.43;11.23;;;;;;;27.08;46.56;97723.72;5017624;28;20193;-86
2021/07/24 10:21:05;;;;;;;13.00;11.80;;;;;;;27.04;46.33;97730.59;5033830;28;20717;-87
2021/07/24 10:23:33;;;;;;;12.33;11.23;;;;;;;27.02;46.21;97724.66;5033880;28;20198;-87
2021/07/24 10:26:13;;;;;;;12.60;11.50;;;;;;;27.03;46.20;97723.59;5034004;28;20289;-87
2021/07/24 10:28:53;;;;;;;12.90;11.70;;;;;;;27.01;45.87;97715.00;5035374;28;20178;-87
2021/07/24 10:31:25;;;;;;;12.37;11.23;;;;;;;26.98;45.98;97712.81;5018712;28;20213;-86
2021/07/24 10:33:58;;;;;;;12.10;11.00;;;;;;;27.00;46.16;97708.81;5037910;28;20217;-86
2021/07/24 10:36:45;;;;;;;12.30;11.20;;;;;;;26.99;46.10;97711.75;5037952;28;20233;-86
2021/07/24 10:39:15;;;;;;;12.53;11.40;;;;;;;26.94;45.83;97707.09;5038477;28;20241;-86
2021/07/24 10:41:51;;;;;;;12.67;11.47;;;;;;;26.91;45.76;97721.75;5037225;28;20214;-86
2021/07/24 10:44:36;;;;;;;11.93;10.83;;;;;;;26.96;45.57;97725.59;5037471;28;20195;-86
2021/07/24 10:47:02;;;;;;;11.70;10.70;;;;;;;26.97;45.62;97720.00;5037427;28;20191;-86
2021/07/24 10:49:32;;;;;;;12.13;11.00;;;;;;;26.97;45.54;97729.91;5037284;28;20206;-86
2021/07/24 10:52:02;;;;;;;11.60;10.50;;;;;;;26.96;45.72;97733.66;5037209;28;20289;-86
2021/07/24 10:54:33;;;;;;;12.13;11.03;;;;;;;27.03;45.63;97737.00;5038137;28;20199;-86
2021/07/24 10:57:00;;;;;;;11.83;10.73;;;;;;;27.01;45.52;97737.22;5038279;28;20202;-86
2021/07/24 10:59:30;;;;;;;11.27;10.27;;;;;;;26.99;45.53;97735.84;5037095;28;20198;-86
2021/07/24 11:01:57;;;;;;;11.80;10.53;;;;;;;26.98;45.63;97736.91;5037220;28;20206;-86
2021/07/24 11:04:37;;;;;;;12.00;10.90;;;;;;;26.96;45.32;97739.00;5037427;28;20182;-86
2021/07/24 11:07:12;;;;;;;11.83;10.73;;;;;;;26.90;45.59;97736.19;5037145;28;20285;-86
2021/07/24 11:09:40;;;;;;;11.50;10.50;;;;;;;26.92;45.47;97744.78;5038031;28;20612;-86
2021/07/24 11:12:08;;;;;;;11.17;10.17;;;;;;;26.88;45.46;97749.00;5036867;28;20658;-86
2021/07/24 11:14:37;;;;;;;11.03;10.03;;;;;;;26.90;45.37;97767.50;5037108;28;20195;-85
2021/07/24 11:17:07;;;;;;;10.53;9.63;;;;;;;26.90;45.25;97760.28;5036847;28;20214;-86
2021/07/24 11:19:35;;;;;;;10.50;9.50;;;;;;;26.96;45.34;97757.75;5036931;28;20201;-86
2021/07/24 11:22:15;;;;;;;10.87;9.87;;;;;;;27.00;45.16;97773.06;5036816;28;20221;-87
2021/07/24 11:25:01;;;;;;;10.97;9.97;;;;;;;27.08;45.01;97773.78;5037979;28;20191;-86
2021/07/24 11:27:31;;;;;;;10.77;9.77;;;;;;;27.05;44.84;97775.06;5039366;28;20194;-86
2021/07/24 11:30:06;;;;;;;10.83;9.83;;;;;;;27.06;44.94;97761.44;5041774;28;20202;-87
2021/07/24 11:32:38;;;;;;;11.20;10.20;;;;;;;27.07;44.65;97770.28;5039936;28;20228;-88
2021/07/24 11:35:13;;;;;;;11.10;10.00;;;;;;;27.09;44.78;97768.19;5036588;28;20244;-87
2021/07/24 11:37:46;;;;;;;10.37;9.40;;;;;;;27.08;44.85;97753.16;5036396;28;20201;-87
2021/07/24 11:40:13;;;;;;;10.53;9.60;;;;;;;27.09;44.82;97768.19;5019981;28;20200;-87